createdAt,value
2018-12-14T00:00:20.105Z,6.87
2018-12-14T00:02:53.951Z,6.97
2018-12-14T00:05:25.048Z,7.90
2018-12-14T00:07:58.648Z,6.77
2018-12-14T00:10:32.572Z,7.33
2018-12-14T00:13:03.590Z,7.37
2018-12-14T00:15:43.886Z,6.67
2018-12-14T00:18:17.068Z,6.53
2018-12-14T00:20:51.067Z,6.77
2018-12-14T00:23:31.601Z,7.27
2018-12-14T00:26:03.023Z,6.30
2018-12-14T00:28:33.872Z,6.43
2018-12-14T00:31:07.822Z,6.40
2018-12-14T00:33:39.076Z,6.93
2018-12-14T00:36:12.871Z,7.17
2018-12-14T00:38:46.656Z,6.50
2018-12-14T00:41:20.708Z,6.80
2018-12-14T00:43:51.256Z,6.67
2018-12-14T00:46:24.388Z,6.83
2018-12-14T00:48:58.291Z,6.87
2018-12-14T00:51:32.308Z,6.80
2018-12-14T00:54:03.399Z,7.27
2018-12-14T00:56:37.101Z,6.10
2018-12-14T00:59:10.779Z,6.67
2018-12-14T01:01:49.730Z,6.53
2018-12-14T01:04:20.196Z,7.40
2018-12-14T01:06:54.017Z,7.57
2018-12-14T01:09:32.871Z,6.33
2018-12-14T01:12:06.060Z,6.70
2018-12-14T01:14:36.989Z,7.10
2018-12-14T01:17:07.538Z,7.20
2018-12-14T01:19:42.530Z,7.10
2018-12-14T01:22:16.677Z,7.00
2018-12-14T01:24:47.788Z,6.50
2018-12-14T01:27:21.386Z,7.23
2018-12-14T01:29:55.416Z,6.70
2018-12-14T01:32:29.333Z,7.13
2018-12-14T01:35:01.596Z,7.70
2018-12-14T01:37:35.406Z,7.47
2018-12-14T01:40:06.469Z,7.90
2018-12-14T01:42:37.292Z,7.10
2018-12-14T01:45:11.089Z,6.90
2018-12-14T01:47:40.395Z,7.90
2018-12-14T01:50:14.012Z,7.23
2018-12-14T01:52:48.705Z,7.10
2018-12-14T01:55:22.739Z,7.97
2018-12-14T01:57:54.983Z,7.87
2018-12-14T02:00:23.608Z,7.10
2018-12-14T02:02:57.642Z,7.60
2018-12-14T02:05:28.646Z,6.57
2018-12-14T02:08:02.238Z,7.70
2018-12-14T02:10:36.125Z,7.10
2018-12-14T02:13:09.896Z,7.97
2018-12-14T02:15:40.379Z,7.43
2018-12-14T02:18:11.090Z,7.53
2018-12-14T02:20:40.209Z,6.90
2018-12-14T02:23:11.327Z,7.33
2018-12-14T02:25:44.930Z,7.97
2018-12-14T02:28:14.060Z,6.50
2018-12-14T02:30:46.180Z,6.77
2018-12-14T02:33:19.930Z,8.10
2018-12-14T02:35:51.232Z,7.97
2018-12-14T02:38:25.195Z,7.80
2018-12-14T02:40:55.340Z,7.20
2018-12-14T02:43:24.321Z,7.10
2018-12-14T02:45:57.827Z,6.67
2018-12-14T02:48:28.867Z,7.47
2018-12-14T02:51:01.009Z,7.80
2018-12-14T02:53:31.816Z,7.30
2018-12-14T02:56:02.796Z,7.07
2018-12-14T02:58:40.320Z,7.30
2018-12-14T03:01:14.062Z,7.37
2018-12-14T03:03:48.882Z,6.73
2018-12-14T03:06:25.632Z,7.87
2018-12-14T03:08:56.064Z,6.87
2018-12-14T03:11:30.040Z,7.63
2018-12-14T03:14:01.087Z,6.87
2018-12-14T03:16:30.252Z,6.97
2018-12-14T03:19:01.279Z,7.13
2018-12-14T03:21:36.083Z,7.20
2018-12-14T03:24:07.105Z,7.53
2018-12-14T03:26:38.160Z,7.30
2018-12-14T03:29:07.272Z,7.07
2018-12-14T03:31:42.061Z,7.10
2018-12-14T03:34:12.516Z,7.00
2018-12-14T03:36:46.289Z,7.33
2018-12-14T03:39:17.526Z,7.67
2018-12-14T03:41:49.325Z,6.60
2018-12-14T03:44:20.922Z,6.77
2018-12-14T03:46:54.141Z,6.87
2018-12-14T03:49:27.949Z,7.10
2018-12-14T03:51:59.156Z,6.87
2018-12-14T03:54:30.339Z,7.07
2018-12-14T03:57:04.056Z,7.20
2018-12-14T04:02:27.345Z,7.30
2018-12-14T04:04:54.740Z,7.30
2018-12-14T04:07:22.212Z,6.77
2018-12-14T04:09:49.668Z,6.57
2018-12-14T04:12:17.078Z,6.93
2018-12-14T04:14:44.481Z,7.40
2018-12-14T04:17:12.821Z,7.37
2018-12-14T04:19:40.219Z,6.83
2018-12-14T04:22:07.615Z,6.87
2018-12-14T04:24:35.014Z,7.00
2018-12-14T04:27:02.407Z,7.10
2018-12-14T04:29:29.806Z,7.27
2018-12-14T04:31:57.203Z,6.80
2018-12-14T04:34:24.684Z,6.60
2018-12-14T04:36:52.090Z,6.50
2018-12-14T04:39:19.496Z,7.47
2018-12-14T04:41:46.904Z,6.60
2018-12-14T04:44:14.306Z,6.87
2018-12-14T04:46:41.713Z,7.40
2018-12-14T04:49:09.116Z,7.07
2018-12-14T04:51:36.496Z,6.70
2018-12-14T04:54:03.908Z,7.70
2018-12-14T04:56:33.252Z,7.07
2018-12-14T04:59:00.656Z,7.30
2018-12-14T05:01:28.055Z,7.57
2018-12-14T05:03:55.447Z,7.80
2018-12-14T05:06:22.840Z,7.30
2018-12-14T05:08:50.240Z,7.37
2018-12-14T05:11:17.631Z,7.87
2018-12-14T05:13:45.040Z,7.93
2018-12-14T05:16:12.424Z,7.63
2018-12-14T05:18:39.841Z,7.47
2018-12-14T05:21:08.241Z,7.73
2018-12-14T05:23:35.636Z,7.67
2018-12-14T05:26:03.047Z,7.30
2018-12-14T05:28:30.443Z,7.33
2018-12-14T05:30:57.844Z,7.53
2018-12-14T05:33:25.255Z,7.57
2018-12-14T05:35:52.648Z,8.00
2018-12-14T05:38:20.038Z,7.93
2018-12-14T05:40:47.444Z,7.47
2018-12-14T05:43:14.860Z,7.80
2018-12-14T05:45:42.346Z,8.33
2018-12-14T05:48:09.743Z,8.03
2018-12-14T05:50:37.227Z,8.20
2018-12-14T05:53:04.625Z,8.83
2018-12-14T05:55:32.046Z,8.00
2018-12-14T05:57:59.432Z,7.70
2018-12-14T06:00:26.835Z,7.57
2018-12-14T06:02:54.301Z,7.57
2018-12-14T06:05:21.821Z,7.67
2018-12-14T06:07:49.220Z,6.87
2018-12-14T06:10:16.688Z,7.40
2018-12-14T06:12:44.080Z,7.90
2018-12-14T06:15:11.471Z,7.83
2018-12-14T06:17:42.112Z,8.00
2018-12-14T06:20:09.568Z,7.70
2018-12-14T06:22:36.965Z,7.43
2018-12-14T06:25:04.832Z,7.77
2018-12-14T06:27:32.318Z,8.03
2018-12-14T06:29:59.905Z,7.67
2018-12-14T06:32:27.313Z,8.10
2018-12-14T06:34:54.745Z,8.17
2018-12-14T06:37:22.299Z,7.53
2018-12-14T06:39:49.700Z,6.93
2018-12-14T06:42:17.251Z,7.23
2018-12-14T06:44:44.650Z,7.57
2018-12-14T06:47:12.548Z,7.07
2018-12-14T06:49:39.935Z,6.87
2018-12-14T06:52:09.302Z,6.40
2018-12-14T06:54:38.659Z,7.10
2018-12-14T06:57:06.129Z,6.70
2018-12-14T06:59:34.495Z,5.60
2018-12-14T07:02:01.891Z,6.47
2018-12-14T07:04:29.279Z,6.53
2018-12-14T07:06:56.694Z,6.10
2018-12-14T07:09:24.080Z,5.50
2018-12-14T07:11:51.517Z,5.67
2018-12-14T07:14:18.963Z,5.50
2018-12-14T07:16:46.348Z,6.27
2018-12-14T07:19:13.750Z,5.70
2018-12-14T07:21:41.144Z,6.17
2018-12-14T07:24:08.583Z,6.13
2018-12-14T07:26:36.151Z,5.80
2018-12-14T07:29:03.645Z,5.77
2018-12-14T07:31:31.088Z,5.83
2018-12-14T07:33:58.573Z,6.10
2018-12-14T07:36:26.884Z,5.27
2018-12-14T07:38:54.284Z,5.23
2018-12-14T07:41:21.675Z,5.43
2018-12-14T07:43:49.079Z,5.90
2018-12-14T07:46:16.555Z,5.80
2018-12-14T07:48:43.956Z,5.27
2018-12-14T07:51:11.344Z,5.40
2018-12-14T07:53:38.747Z,6.10
2018-12-14T07:56:06.141Z,5.60
2018-12-14T07:58:33.607Z,5.77
2018-12-14T08:01:01.001Z,5.97
2018-12-14T08:03:28.404Z,5.70
2018-12-14T08:05:55.798Z,5.47
2018-12-14T08:08:23.191Z,5.53
2018-12-14T08:10:50.589Z,6.33
2018-12-14T08:13:19.429Z,6.33
2018-12-14T08:15:46.966Z,5.70
2018-12-14T08:18:15.202Z,5.73
2018-12-14T08:20:42.596Z,5.83
2018-12-14T08:23:09.990Z,6.53
2018-12-14T08:25:37.393Z,5.97
2018-12-14T08:28:04.846Z,6.20
2018-12-14T08:30:32.224Z,5.87
2018-12-14T08:32:59.628Z,5.60
2018-12-14T08:35:27.027Z,6.50
2018-12-14T08:37:54.456Z,5.57
2018-12-14T08:40:21.847Z,6.60
2018-12-14T08:42:49.320Z,6.43
2018-12-14T08:45:16.771Z,6.23
2018-12-14T08:47:44.212Z,5.77
2018-12-14T08:50:11.624Z,6.50
2018-12-14T08:52:39.012Z,6.37
2018-12-14T08:55:06.521Z,6.53
2018-12-14T08:57:33.998Z,6.53
2018-12-14T09:00:01.419Z,5.97
2018-12-14T09:02:28.896Z,6.27
2018-12-14T09:04:56.298Z,6.30
2018-12-14T09:07:24.850Z,6.83
2018-12-14T09:09:52.398Z,6.50
2018-12-14T09:12:19.834Z,6.83
2018-12-14T09:14:47.240Z,6.50
2018-12-14T09:17:14.631Z,6.33
2018-12-14T09:19:42.088Z,6.20
2018-12-14T09:22:09.493Z,6.23
2018-12-14T09:24:36.890Z,6.93
2018-12-14T09:27:04.350Z,6.40
2018-12-14T09:29:31.788Z,6.57
2018-12-14T09:31:59.409Z,6.50
2018-12-14T09:34:26.892Z,6.20
2018-12-14T09:36:54.299Z,6.47
2018-12-14T09:39:21.692Z,7.17
2018-12-14T09:41:49.172Z,6.50
2018-12-14T09:44:16.613Z,6.70
2018-12-14T09:46:44.009Z,6.50
2018-12-14T09:49:11.396Z,6.43
2018-12-14T09:51:38.787Z,6.13
2018-12-14T09:54:06.327Z,7.30
2018-12-14T09:56:33.751Z,7.03
2018-12-14T09:59:01.164Z,6.40
2018-12-14T10:01:35.022Z,6.80
2018-12-14T10:04:02.470Z,6.70
2018-12-14T10:06:29.885Z,6.90
2018-12-14T10:08:57.405Z,6.17
2018-12-14T10:11:24.786Z,6.10
2018-12-14T10:13:52.200Z,6.17
2018-12-14T10:16:19.608Z,6.00
2018-12-14T10:18:47.454Z,6.30
2018-12-14T10:21:14.856Z,6.47
2018-12-14T10:23:42.264Z,6.60
2018-12-14T10:26:09.672Z,6.97
2018-12-14T10:28:37.071Z,6.10
2018-12-14T10:31:04.544Z,6.53
2018-12-14T10:33:31.959Z,6.33
2018-12-14T10:36:00.354Z,6.27
2018-12-14T10:38:27.773Z,6.50
2018-12-14T10:40:55.176Z,8.10
2018-12-14T10:43:22.590Z,6.33
2018-12-14T10:45:50.255Z,6.30
2018-12-14T10:48:17.680Z,7.23
2018-12-14T10:50:45.109Z,7.10
2018-12-14T10:53:12.536Z,7.27
2018-12-14T10:55:40.978Z,6.80
2018-12-14T10:58:08.640Z,6.17
2018-12-14T11:00:41.626Z,6.50
2018-12-14T11:03:11.099Z,7.27
2018-12-14T11:05:38.526Z,6.57
2018-12-14T11:08:07.005Z,6.43
2018-12-14T11:10:34.432Z,6.50
2018-12-14T11:13:01.828Z,6.60
2018-12-14T11:15:30.336Z,7.13
2018-12-14T11:17:57.953Z,6.17
2018-12-14T11:20:25.363Z,6.43
2018-12-14T11:22:53.712Z,7.97
2018-12-14T11:25:21.125Z,6.90
2018-12-14T11:27:48.527Z,7.30
2018-12-14T11:30:16.007Z,6.40
2018-12-14T11:32:44.365Z,6.90
2018-12-14T11:35:11.840Z,7.00
2018-12-14T11:37:39.244Z,6.47
2018-12-14T11:40:06.712Z,7.60
2018-12-14T11:42:34.116Z,6.60
2018-12-14T11:45:02.514Z,6.73
2018-12-14T11:47:35.046Z,6.87
2018-12-14T11:50:02.459Z,7.03
2018-12-14T11:52:29.869Z,6.27
2018-12-14T11:54:57.285Z,6.50
2018-12-14T11:57:24.688Z,6.70
2018-12-14T11:59:52.084Z,7.17
2018-12-14T12:02:19.490Z,6.70
2018-12-14T12:04:47.867Z,7.03
2018-12-14T12:07:22.662Z,6.63
2018-12-14T12:09:51.057Z,6.90
2018-12-14T12:12:18.558Z,6.80
2018-12-14T12:14:45.959Z,7.37
2018-12-14T12:17:13.369Z,7.43
2018-12-14T12:19:42.733Z,6.83
2018-12-14T12:22:10.225Z,7.53
2018-12-14T12:24:37.620Z,7.13
2018-12-14T12:27:05.044Z,7.20
2018-12-14T12:29:32.525Z,7.43
2018-12-14T12:31:59.933Z,7.87
2018-12-14T12:34:27.343Z,7.00
2018-12-14T12:36:54.846Z,7.60
2018-12-14T12:39:22.327Z,6.73
2018-12-14T12:41:49.761Z,7.57
2018-12-14T12:44:17.189Z,7.20
2018-12-14T12:46:44.647Z,7.77
2018-12-14T12:49:12.088Z,7.80
2018-12-14T12:51:39.768Z,7.63
2018-12-14T12:54:07.171Z,6.63
2018-12-14T12:56:37.767Z,7.47
2018-12-14T12:59:05.176Z,7.63
2018-12-14T13:01:32.657Z,7.10
2018-12-14T13:04:04.483Z,7.70
2018-12-14T13:06:33.924Z,7.10
2018-12-14T13:09:01.325Z,6.83
2018-12-14T13:11:31.931Z,7.77
2018-12-14T13:14:02.528Z,7.37
2018-12-14T13:16:29.938Z,7.27
2018-12-14T13:18:57.348Z,6.93
2018-12-14T13:21:24.756Z,7.27
2018-12-14T13:23:52.153Z,8.20
2018-12-14T13:26:19.644Z,7.40
2018-12-14T13:28:51.827Z,8.10
2018-12-14T13:31:20.284Z,8.13
2018-12-14T13:33:47.688Z,7.43
2018-12-14T13:36:16.138Z,7.47
2018-12-14T13:38:43.555Z,8.00
2018-12-14T13:41:12.015Z,8.13
2018-12-14T13:43:39.428Z,7.50
2018-12-14T13:46:06.822Z,7.63
2018-12-14T13:48:34.210Z,7.93
2018-12-14T13:51:01.632Z,7.87
2018-12-14T13:53:29.025Z,8.50
2018-12-14T13:55:56.516Z,8.73
2018-12-14T13:58:24.012Z,7.73
2018-12-14T14:00:51.488Z,8.57
2018-12-14T14:03:19.915Z,7.17
2018-12-14T14:05:47.324Z,7.90
2018-12-14T14:08:14.780Z,7.90
2018-12-14T14:10:48.297Z,8.17
2018-12-14T14:13:32.456Z,7.97
2018-12-14T14:15:59.863Z,7.60
2018-12-14T14:18:30.009Z,7.67
2018-12-14T14:20:57.433Z,8.13
2018-12-14T14:23:24.837Z,8.40
2018-12-14T14:25:52.248Z,7.63
2018-12-14T14:28:19.647Z,7.90
2018-12-14T14:30:47.079Z,8.10
2018-12-14T14:33:14.498Z,8.80
2018-12-14T14:35:41.888Z,8.60
2018-12-14T14:38:09.319Z,9.07
2018-12-14T14:40:55.645Z,8.30
2018-12-14T14:43:23.059Z,8.90
2018-12-14T14:45:50.508Z,8.67
2018-12-14T14:48:17.919Z,8.67
2018-12-14T14:50:46.313Z,9.27
2018-12-14T14:53:13.790Z,8.20
2018-12-14T14:55:41.178Z,8.57
2018-12-14T14:58:09.528Z,7.97
2018-12-14T15:00:37.961Z,8.20
2018-12-14T15:03:05.625Z,8.57
2018-12-14T15:05:33.032Z,8.27
2018-12-14T15:08:00.435Z,7.73
2018-12-14T15:10:28.500Z,9.00
2018-12-14T15:12:55.884Z,9.17
2018-12-14T15:15:23.274Z,9.97
2018-12-14T15:17:50.821Z,8.20
2018-12-14T15:20:18.218Z,8.10
2018-12-14T15:22:45.878Z,8.17
2018-12-14T15:25:13.612Z,8.83
2018-12-14T15:27:41.059Z,7.50
2018-12-14T15:30:08.523Z,7.37
2018-12-14T15:32:35.973Z,8.13
2018-12-14T15:35:04.137Z,7.87
2018-12-14T15:37:32.661Z,7.63
2018-12-14T15:40:24.116Z,7.33
2018-12-14T15:42:54.666Z,8.43
2018-12-14T15:45:22.059Z,7.50
2018-12-14T15:47:50.456Z,8.07
2018-12-14T15:50:18.848Z,8.27
2018-12-14T15:52:51.460Z,7.90
2018-12-14T15:55:18.861Z,7.67
2018-12-14T15:57:46.247Z,7.50
2018-12-14T16:00:14.165Z,7.37
2018-12-14T16:02:44.741Z,7.43
2018-12-14T16:05:15.528Z,7.57
2018-12-14T16:07:50.150Z,7.70
2018-12-14T16:10:26.021Z,7.37
2018-12-14T16:12:59.904Z,7.03
2018-12-14T16:15:31.121Z,6.60
2018-12-14T16:18:02.318Z,7.30
2018-12-14T16:20:36.286Z,6.90
2018-12-14T16:23:05.560Z,7.40
2018-12-14T16:25:39.460Z,6.97
2018-12-14T16:28:12.659Z,6.30
2018-12-14T16:30:46.563Z,6.30
2018-12-14T16:33:20.551Z,6.50
2018-12-14T16:35:49.780Z,6.90
2018-12-14T16:38:23.769Z,6.67
2018-12-14T16:40:54.991Z,7.10
2018-12-14T16:43:28.576Z,6.00
2018-12-14T16:46:02.575Z,6.40
2018-12-14T16:48:33.619Z,7.53
2018-12-14T16:51:04.746Z,8.83
2018-12-14T16:53:37.736Z,7.00
2018-12-14T16:56:11.649Z,6.80
2018-12-14T16:58:40.859Z,6.13
2018-12-14T17:01:11.857Z,6.47
2018-12-14T17:03:42.941Z,7.10
2018-12-14T17:06:16.697Z,6.83
2018-12-14T17:08:47.961Z,6.90
2018-12-14T17:11:21.867Z,6.40
2018-12-14T17:13:53.017Z,6.70
2018-12-14T17:16:23.847Z,6.33
2018-12-14T17:18:54.964Z,5.87
2018-12-14T17:21:25.920Z,8.27
2018-12-14T17:23:56.965Z,6.30
2018-12-14T17:26:30.889Z,7.63
2018-12-14T17:29:03.988Z,6.53
2018-12-14T17:31:33.204Z,10.77
2018-12-14T17:34:04.317Z,8.40
2018-12-14T17:36:38.375Z,9.53
2018-12-14T17:39:15.188Z,6.40
2018-12-14T17:41:48.425Z,5.83
2018-12-14T17:44:22.352Z,6.10
2018-12-14T17:46:56.358Z,6.13
2018-12-14T17:49:30.057Z,6.40
2018-12-14T17:52:00.547Z,6.57
2018-12-14T17:54:34.376Z,6.20
2018-12-14T17:57:05.614Z,7.00
2018-12-14T17:59:39.470Z,6.13
2018-12-14T18:02:19.985Z,6.67
2018-12-14T18:04:50.705Z,6.40
2018-12-14T18:07:21.836Z,6.10
2018-12-14T18:09:52.990Z,7.90
2018-12-14T18:12:26.783Z,6.87
2018-12-14T18:15:04.376Z,6.63
2018-12-14T18:17:35.513Z,8.47
2018-12-14T18:20:06.729Z,6.90
2018-12-14T18:22:40.649Z,6.57
2018-12-14T18:25:14.692Z,6.07
2018-12-14T18:27:48.300Z,7.77
2018-12-14T18:30:22.324Z,7.07
2018-12-14T18:32:51.518Z,6.50
2018-12-14T18:35:20.524Z,7.73
2018-12-14T18:37:51.450Z,9.93
2018-12-14T18:40:21.755Z,7.70
2018-12-14T18:42:56.871Z,8.70
2018-12-14T18:45:30.733Z,7.40
2018-12-14T18:47:59.926Z,6.83
2018-12-14T18:50:35.672Z,8.37
2018-12-14T18:53:05.986Z,7.47
2018-12-14T18:55:36.876Z,7.43
2018-12-14T18:58:07.852Z,6.97
2018-12-14T19:00:45.315Z,7.53
2018-12-14T19:03:12.721Z,7.33
2018-12-14T19:05:40.196Z,8.00
2018-12-14T19:08:07.589Z,7.03
2018-12-14T19:10:34.993Z,7.40
2018-12-14T19:13:02.377Z,8.97
2018-12-14T19:15:29.780Z,9.50
2018-12-14T19:17:57.174Z,7.20
2018-12-14T19:20:24.566Z,7.13
2018-12-14T19:22:51.960Z,7.60
2018-12-14T19:25:19.350Z,6.83
2018-12-14T19:27:46.739Z,6.90
2018-12-14T19:30:14.140Z,6.47
2018-12-14T19:32:41.544Z,6.43
2018-12-14T19:35:08.936Z,7.10
2018-12-14T19:37:36.338Z,6.93
2018-12-14T19:40:06.324Z,6.97
2018-12-14T19:42:33.725Z,7.43
2018-12-14T19:45:01.163Z,6.60
2018-12-14T19:47:28.655Z,7.43
2018-12-14T19:49:56.095Z,7.23
2018-12-14T19:52:23.624Z,6.77
2018-12-14T19:54:51.074Z,6.50
2018-12-14T19:57:18.472Z,8.70
2018-12-14T19:59:45.883Z,6.87
2018-12-14T20:02:13.279Z,6.33
2018-12-14T20:04:41.704Z,6.60
2018-12-14T20:07:12.676Z,6.90
2018-12-14T20:09:40.075Z,7.83
2018-12-14T20:12:10.647Z,6.30
2018-12-14T20:14:38.136Z,6.67
2018-12-14T20:17:06.489Z,7.73
2018-12-14T20:19:40.930Z,7.07
2018-12-14T20:22:11.591Z,7.13
2018-12-14T20:24:38.988Z,6.77
2018-12-14T20:27:09.674Z,6.53
2018-12-14T20:29:37.075Z,6.73
2018-12-14T20:32:06.483Z,7.07
2018-12-14T20:34:34.872Z,7.00
2018-12-14T20:37:02.329Z,7.33
2018-12-14T20:39:30.656Z,6.63
2018-12-14T20:41:58.047Z,6.50
2018-12-14T20:44:27.465Z,6.60
2018-12-14T20:46:55.796Z,6.30
2018-12-14T20:49:23.289Z,6.73
2018-12-14T20:51:50.684Z,7.07
2018-12-14T20:54:18.235Z,8.03
2018-12-14T20:56:51.761Z,7.07
2018-12-14T20:59:23.318Z,7.20
2018-12-14T21:01:50.704Z,7.00
2018-12-14T21:04:18.113Z,6.50
2018-12-14T21:06:58.163Z,6.80
2018-12-14T21:09:25.562Z,6.93
2018-12-14T21:11:52.951Z,6.93
2018-12-14T21:14:20.604Z,7.60
2018-12-14T21:16:48.977Z,6.63
2018-12-14T21:19:16.409Z,7.40
2018-12-14T21:21:43.884Z,7.47
2018-12-14T21:24:11.286Z,7.33
2018-12-14T21:26:39.676Z,7.57
2018-12-14T21:29:07.080Z,7.70
2018-12-14T21:31:34.487Z,8.03
2018-12-14T21:34:01.929Z,7.73
2018-12-14T21:36:30.331Z,7.23
2018-12-14T21:38:58.716Z,8.40
2018-12-14T21:41:28.116Z,8.70
2018-12-14T21:43:56.527Z,7.80
2018-12-14T21:46:32.575Z,8.60
2018-12-14T21:48:58.880Z,8.23
2018-12-14T21:51:26.341Z,7.73
2018-12-14T21:53:53.735Z,7.77
2018-12-14T21:56:27.579Z,7.83
2018-12-14T21:58:55.912Z,8.10
2018-12-14T22:01:23.311Z,8.00
2018-12-14T22:03:53.955Z,8.30
2018-12-14T22:06:21.366Z,8.17
2018-12-14T22:08:49.689Z,7.90
2018-12-14T22:11:17.117Z,7.83
2018-12-14T22:13:44.512Z,8.37
2018-12-14T22:16:12.933Z,8.53
2018-12-14T22:18:43.415Z,8.50
2018-12-14T22:21:18.328Z,8.27
2018-12-14T22:23:50.703Z,7.77
2018-12-14T22:26:25.424Z,8.20
2018-12-14T22:28:58.927Z,8.33
2018-12-14T22:31:26.329Z,8.10
2018-12-14T22:33:53.833Z,8.60
2018-12-14T22:36:23.175Z,8.13
2018-12-14T22:38:54.161Z,8.63
2018-12-14T22:41:21.542Z,8.47
2018-12-14T22:43:48.956Z,8.27
2018-12-14T22:46:16.367Z,8.90
2018-12-14T22:48:49.771Z,8.17
2018-12-14T22:51:17.321Z,8.90
2018-12-14T22:53:44.720Z,8.50
2018-12-14T22:56:19.167Z,7.97
2018-12-14T22:58:49.995Z,8.50
2018-12-14T23:01:18.344Z,8.90
2018-12-14T23:04:02.252Z,8.47
2018-12-14T23:06:31.658Z,8.17
2018-12-14T23:09:11.485Z,8.73
2018-12-14T23:11:52.493Z,9.73
2018-12-14T23:14:19.917Z,9.03
2018-12-14T23:16:52.223Z,8.67
2018-12-14T23:19:16.719Z,8.13
2018-12-14T23:21:44.093Z,8.23
2018-12-14T23:24:14.584Z,8.30
2018-12-14T23:26:41.972Z,7.83
2018-12-14T23:29:09.383Z,7.90
2018-12-14T23:31:36.777Z,7.40
2018-12-14T23:34:09.391Z,8.00
2018-12-14T23:36:36.836Z,9.97
2018-12-14T23:39:10.257Z,7.60
2018-12-14T23:41:37.651Z,8.30
2018-12-14T23:44:09.396Z,7.93
2018-12-14T23:46:40.028Z,8.00
2018-12-14T23:49:08.416Z,8.10
2018-12-14T23:51:35.876Z,8.20
2018-12-14T23:54:07.528Z,7.90
2018-12-14T23:56:40.901Z,8.43
2018-12-14T23:59:08.570Z,7.87
